GMME/RBA METAR and TAF weather

Enter ICAO airport designator
Station Type Date Time Source
GMME METAR 2021/09/23 23:30 UTC NOAA

GMME 232330Z 00000KT 5000 SCT015 BKN080 20/19 Q1013 NOSIG


Station Type Date Time Source
GMME Decoded METAR 2021/09/23 23:30 UTC NOAA

Rabat-Sale, Morocco (GMME) 34-03N 006-46W 75M
Sep 23, 2021 - 07:30 PM EDT / 2021.09.23 2330 UTC
Wind: Calm:0
Visibility: 3 mile(s):0
Sky conditions: mostly cloudy
Temperature: 68 F (20 C)
Dew Point: 66 F (19 C)
Relative Humidity: 93%
Pressure (altimeter): 29.91 in. Hg (1013 hPa)
ob: GMME 232330Z 00000KT 5000 SCT015 BKN080 20/19 Q1013 NOSIG
cycle: 23

Station Type Date Time Source
GMME TAF 2021/09/23 18:18 UTC NOAA

TAF GMME 231700Z 2318/2424 34010KT 6000 BKN013 SCT080
TEMPO 2322/2407 00000KT 2000 BR BKN008 PROB40
TEMPO 2410/2418 34012KT 4000 RA BKN013 BKN080

Example: see airport list